Time,TemperatureF,DewpointF,PressureIn,WindDirection,WindDirectionDegrees,WindSpeedMPH,WindSpeedGustMPH,Humidity,HourlyPrecipIn,Conditions,Clouds,dailyrainin,SoftwareType,DateUTC
2013-07-05 00:00:00,79.8,75.2,29.88,SSW,202,3.0,16.0,86,0.02,,,-99.99,WeatherLink 5.6,2013-07-05 05:00:00,
2013-07-05 00:30:00,80.3,74.3,29.89,South,180,5.0,17.0,82,0.00,,,-99.99,WeatherLink 5.6,2013-07-05 05:30:00,
2013-07-05 01:00:00,80.9,74.1,29.88,SSW,202,6.0,18.0,80,0.00,,,-99.99,WeatherLink 5.6,2013-07-05 06:00:00,
2013-07-05 01:30:00,81.1,74.3,29.89,SSW,202,6.0,16.0,80,0.00,,,-99.99,WeatherLink 5.6,2013-07-05 06:30:00,
2013-07-05 02:00:00,81.1,74.0,29.87,SSW,202,5.0,17.0,79,0.00,,,-99.99,WeatherLink 5.6,2013-07-05 07:00:00,
2013-07-05 02:30:00,80.9,74.5,29.88,SSW,202,5.0,17.0,81,0.00,,,-99.99,WeatherLink 5.6,2013-07-05 07:30:00,
2013-07-05 03:00:00,80.7,74.7,29.87,South,180,2.0,10.0,82,0.00,,,-99.99,WeatherLink 5.6,2013-07-05 08:00:00,
2013-07-05 03:30:00,80.5,74.9,29.88,SSW,202,1.0,5.0,83,0.00,,,-99.99,WeatherLink 5.6,2013-07-05 08:30:00,
2013-07-05 04:00:00,79.8,74.2,29.88,SSW,202,0.0,4.0,83,0.00,,,-99.99,WeatherLink 5.6,2013-07-05 09:00:00,
2013-07-05 04:30:00,77.7,73.9,29.88,North,0,0.0,4.0,88,0.00,,,-99.99,WeatherLink 5.6,2013-07-05 09:30:00,
2013-07-05 05:00:00,76.7,73.9,29.88,ENE,67,1.0,4.0,91,0.00,,,-99.99,WeatherLink 5.6,2013-07-05 10:00:00,
2013-07-05 05:30:00,76.1,73.6,29.88,ENE,67,1.0,5.0,92,0.00,,,-99.99,WeatherLink 5.6,2013-07-05 10:30:00,
2013-07-05 06:00:00,76.0,73.8,29.89,ENE,67,1.0,5.0,93,0.00,,,-99.99,WeatherLink 5.6,2013-07-05 11:00:00,
2013-07-05 06:30:00,75.1,71.3,29.89,West,270,2.0,10.0,88,0.00,,,-99.99,WeatherLink 5.6,2013-07-05 11:30:00,
2013-07-05 07:00:00,74.2,71.7,29.89,West,270,0.0,4.0,92,0.18,,,-99.99,WeatherLink 5.6,2013-07-05 12:00:00,
2013-07-05 07:30:00,73.7,71.9,29.89,ENE,67,0.0,3.0,94,0.18,,,-99.99,WeatherLink 5.6,2013-07-05 12:30:00,
2013-07-05 08:00:00,74.4,72.9,29.91,North,-999,0.0,0.0,95,0.00,,,-99.99,WeatherLink 5.6,2013-07-05 13:00:00,
2013-07-05 08:30:00,75.3,73.8,29.91,North,0,0.0,3.0,95,0.00,,,-99.99,WeatherLink 5.6,2013-07-05 13:30:00,
2013-07-05 09:00:00,75.8,74.3,29.91,North,0,0.0,3.0,95,0.00,,,-99.99,WeatherLink 5.6,2013-07-05 14:00:00,
2013-07-05 09:30:00,76.8,75.6,29.92,East,90,0.0,4.0,96,0.00,,,-99.99,WeatherLink 5.6,2013-07-05 14:30:00,
2013-07-05 10:00:00,77.6,76.1,29.93,ENE,67,1.0,4.0,95,0.00,,,-99.99,WeatherLink 5.6,2013-07-05 15:00:00,
2013-07-05 10:30:00,77.9,76.4,29.94,ENE,67,0.0,4.0,95,0.01,,,-99.99,WeatherLink 5.6,2013-07-05 15:30:00,
2013-07-05 11:00:00,78.1,76.6,29.95,SE,135,0.0,2.0,95,0.03,,,-99.99,WeatherLink 5.6,2013-07-05 16:00:00,
2013-07-05 11:30:00,77.4,75.9,29.97,SE,135,2.0,10.0,95,0.04,,,-99.99,WeatherLink 5.6,2013-07-05 16:30:00,
2013-07-05 12:00:00,76.7,75.2,29.97,SSW,202,3.0,13.0,95,0.08,,,-99.99,WeatherLink 5.6,2013-07-05 17:00:00,
2013-07-05 12:30:00,75.1,73.6,29.98,South,180,7.0,24.0,95,0.10,,,-99.99,WeatherLink 5.6,2013-07-05 17:30:00,
2013-07-05 13:00:00,74.4,72.6,29.98,South,180,3.0,16.0,94,0.09,,,-99.99,WeatherLink 5.6,2013-07-05 18:00:00,
2013-07-05 13:30:00,74.4,72.9,30.00,SE,135,2.0,11.0,95,0.09,,,-99.99,WeatherLink 5.6,2013-07-05 18:30:00,
2013-07-05 14:00:00,74.4,72.6,29.98,South,180,3.0,15.0,94,0.08,,,-99.99,WeatherLink 5.6,2013-07-05 19:00:00,
2013-07-05 14:30:00,74.6,72.8,29.96,SSW,202,5.0,14.0,94,0.06,,,-99.99,WeatherLink 5.6,2013-07-05 19:30:00,
2013-07-05 15:00:00,74.7,72.5,29.93,SSW,202,4.0,13.0,93,0.02,,,-99.99,WeatherLink 5.6,2013-07-05 20:00:00,
2013-07-05 15:30:00,74.6,72.1,29.91,South,180,2.0,9.0,92,0.00,,,-99.99,WeatherLink 5.6,2013-07-05 20:30:00,
2013-07-05 16:00:00,74.4,70.6,29.89,SE,135,6.0,17.0,88,0.00,,,-99.99,WeatherLink 5.6,2013-07-05 21:00:00,
2013-07-05 16:30:00,74.4,69.2,29.87,SE,135,6.0,15.0,84,0.00,,,-99.99,WeatherLink 5.6,2013-07-05 21:30:00,
2013-07-05 17:00:00,74.7,69.9,29.88,SE,135,3.0,12.0,85,0.00,,,-99.99,WeatherLink 5.6,2013-07-05 22:00:00,
2013-07-05 17:30:00,74.9,70.8,29.89,SE,135,1.0,6.0,87,0.01,,,-99.99,WeatherLink 5.6,2013-07-05 22:30:00,
2013-07-05 18:00:00,75.4,71.3,29.89,SE,135,3.0,14.0,87,0.01,,,-99.99,WeatherLink 5.6,2013-07-05 23:00:00,
2013-07-05 18:30:00,75.1,71.3,29.89,SE,135,1.0,9.0,88,0.00,,,-99.99,WeatherLink 5.6,2013-07-05 23:30:00,
2013-07-05 19:00:00,74.7,71.2,29.92,NW,315,1.0,6.0,89,0.01,,,-99.99,WeatherLink 5.6,2013-07-06 00:00:00,
2013-07-05 19:30:00,74.0,71.2,29.92,NE,45,1.0,5.0,91,0.01,,,-99.99,WeatherLink 5.6,2013-07-06 00:30:00,
2013-07-05 20:00:00,74.6,71.5,29.91,ENE,67,1.0,5.0,90,0.00,,,-99.99,WeatherLink 5.6,2013-07-06 01:00:00,
2013-07-05 20:30:00,74.6,71.8,29.89,ENE,67,0.0,4.0,91,0.00,,,-99.99,WeatherLink 5.6,2013-07-06 01:30:00,
2013-07-05 21:00:00,74.6,71.5,29.87,East,90,1.0,7.0,90,0.00,,,-99.99,WeatherLink 5.6,2013-07-06 02:00:00,
2013-07-05 21:30:00,74.6,71.1,29.89,NE,45,1.0,6.0,89,0.00,,,-99.99,WeatherLink 5.6,2013-07-06 02:30:00,
2013-07-05 22:00:00,74.2,71.1,29.89,ENE,67,0.0,4.0,90,0.00,,,-99.99,WeatherLink 5.6,2013-07-06 03:00:00,
2013-07-05 22:30:00,73.7,71.2,29.91,NNW,337,0.0,3.0,92,0.00,,,-99.99,WeatherLink 5.6,2013-07-06 03:30:00,
2013-07-05 23:00:00,73.3,71.2,29.92,NNW,337,0.0,1.0,93,0.00,,,-99.99,WeatherLink 5.6,2013-07-06 04:00:00,
2013-07-05 23:30:00,73.2,71.1,29.92,NNW,337,0.0,2.0,93,0.00,,,-99.99,WeatherLink 5.6,2013-07-06 04:30:00,